Terminal Aerodrome Forecast
Issued by NWS Sioux Falls, SD

Home | Current Version | Previous Version | Graphics & Text | Print | Product List | Glossary On
Versions: 1 2 3 4 5 6 7 8 9 10 11 12 13 14 15
000
FTUS43 KFSD 030520
TAFFSD
TAF
KFSD 030520Z 0306/0406 17012KT P6SM FEW060
     FM031200 20010KT P6SM SCT200
     FM031600 VRB06KT P6SM SCT150
     FM031900 34011KT P6SM SCT060
     FM032100 36013G21KT P6SM FEW050
     FM040100 01008KT P6SM SCT150=

USA.gov is the U.S. government's official web portal to all federal, state and local government web resources and services.